Time;durP1;ratioP1;P1;durP2;ratioP2;P2;SDS_P1;SDS_P2;PMS_P1;PMS_P2;Temp;Humidity;BMP_temperature;BMP_pressure;BME280_temperature;BME280_humidity;BME280_pressure;Samples;Min_cycle;Max_cycle;Signal;HPM_P1;HPM_P2
2024/02/26 00:00:26;;;;;;;15.88;11.68;;;;;;;9.37;62.04;94534.72;5089174;28;20035;-81
2024/02/26 00:02:51;;;;;;;16.70;11.45;;;;;;;9.41;61.74;94538.13;5087120;28;20063;-81
2024/02/26 00:05:17;;;;;;;14.63;10.43;;;;;;;9.42;61.58;94527.94;5089453;28;20521;-80
2024/02/26 00:07:42;;;;;;;17.27;12.02;;;;;;;9.32;61.65;94524.28;5087458;28;20093;-81
2024/02/26 00:10:08;;;;;;;19.08;12.32;;;;;;;9.41;61.64;94527.16;5089010;28;20026;-80
2024/02/26 00:12:34;;;;;;;14.77;10.68;;;;;;;9.37;61.54;94533.97;5087052;28;20107;-81
2024/02/26 00:14:59;;;;;;;16.42;11.23;;;;;;;9.42;61.71;94530.66;5087766;28;20113;-80
2024/02/26 00:17:24;;;;;;;17.27;10.88;;;;;;;9.42;61.67;94517.72;5088987;28;20413;-81
2024/02/26 00:19:50;;;;;;;17.15;11.02;;;;;;;9.36;61.75;94519.47;5086988;28;20478;-80
2024/02/26 00:22:15;;;;;;;18.00;11.73;;;;;;;9.32;61.78;94527.81;5089004;28;20028;-81
2024/02/26 00:24:41;;;;;;;18.83;11.90;;;;;;;9.31;62.22;94523.53;5086998;28;20024;-80
2024/02/26 00:27:06;;;;;;;16.40;11.65;;;;;;;9.23;62.29;94524.16;5087453;28;20119;-81
2024/02/26 00:29:32;;;;;;;16.83;11.48;;;;;;;9.27;62.35;94524.84;5086532;28;20462;-81
2024/02/26 00:31:57;;;;;;;15.82;11.27;;;;;;;9.22;62.42;94526.16;5088260;28;20567;-81
2024/02/26 00:34:23;;;;;;;16.80;12.77;;;;;;;9.18;62.67;94514.53;5088291;28;20055;-81
2024/02/26 00:36:49;;;;;;;18.10;11.70;;;;;;;9.27;62.49;94505.63;5087087;28;20130;-81
2024/02/26 00:39:14;;;;;;;17.38;11.75;;;;;;;9.25;62.55;94508.81;5088807;28;20468;-79
2024/02/26 00:41:40;;;;;;;16.50;12.25;;;;;;;9.14;62.76;94496.66;5085698;28;20542;-81
2024/02/26 00:44:06;;;;;;;17.92;11.50;;;;;;;9.24;62.81;94506.53;5088668;28;20020;-80
2024/02/26 00:46:31;;;;;;;17.98;11.85;;;;;;;9.25;62.83;94500.59;5087186;28;20055;-81
2024/02/26 00:48:56;;;;;;;16.77;12.10;;;;;;;9.26;62.62;94499.38;5087936;28;20028;-80
2024/02/26 00:51:22;;;;;;;16.25;11.13;;;;;;;9.29;62.39;94498.53;5087733;28;20065;-81
2024/02/26 00:53:47;;;;;;;17.80;11.30;;;;;;;9.33;62.26;94492.91;5087276;28;20099;-81
2024/02/26 00:56:12;;;;;;;15.13;10.80;;;;;;;9.30;62.10;94488.31;5086716;28;20055;-81
2024/02/26 00:58:38;;;;;;;14.32;10.93;;;;;;;9.28;62.26;94485.22;5086625;28;20559;-80
2024/02/26 01:01:03;;;;;;;18.08;12.00;;;;;;;9.39;62.02;94490.38;5087782;28;20103;-80
2024/02/26 01:03:29;;;;;;;17.05;11.85;;;;;;;9.41;62.02;94493.47;5085595;28;20494;-81
2024/02/26 01:05:54;;;;;;;20.33;11.88;;;;;;;9.37;62.17;94490.06;5087615;28;20031;-81
2024/02/26 01:08:19;;;;;;;17.45;11.88;;;;;;;9.27;62.84;94489.19;5086971;28;20047;-81
2024/02/26 01:10:45;;;;;;;18.60;12.40;;;;;;;9.32;62.52;94481.16;5087293;28;20107;-81
2024/02/26 01:13:10;;;;;;;18.70;12.23;;;;;;;9.30;62.80;94480.84;5087535;28;20034;-81
2024/02/26 01:15:36;;;;;;;19.42;11.82;;;;;;;9.25;63.07;94480.63;5086586;28;20028;-81
2024/02/26 01:18:01;;;;;;;17.65;11.88;;;;;;;9.24;63.37;94477.13;5088090;28;20031;-81
2024/02/26 01:20:26;;;;;;;18.30;11.68;;;;;;;9.21;63.63;94479.97;5086313;28;20111;-82
2024/02/26 01:22:52;;;;;;;17.08;11.55;;;;;;;9.27;63.05;94469.97;5087695;28;20054;-81
2024/02/26 01:25:18;;;;;;;19.40;12.00;;;;;;;9.34;63.31;94475.22;5086283;28;20358;-81
2024/02/26 01:27:44;;;;;;;18.95;12.52;;;;;;;9.34;63.30;94467.00;5087642;28;20032;-81
2024/02/26 01:30:10;;;;;;;20.85;13.68;;;;;;;9.39;63.37;94482.16;5085522;28;20632;-81
2024/02/26 01:32:36;;;;;;;23.88;12.70;;;;;;;9.38;63.52;94477.88;5086854;28;20047;-81
2024/02/26 01:35:03;;;;;;;17.00;12.20;;;;;;;9.39;63.48;94471.19;5087272;28;20475;-81
2024/02/26 01:37:29;;;;;;;18.35;12.00;;;;;;;9.39;63.15;94463.72;5086312;28;20023;-81
2024/02/26 01:39:55;;;;;;;18.52;12.40;;;;;;;9.39;63.66;94474.69;5087462;28;20158;-81
2024/02/26 01:42:20;;;;;;;23.83;12.98;;;;;;;9.45;63.37;94472.94;5085893;28;20091;-81
2024/02/26 01:44:46;;;;;;;20.65;13.50;;;;;;;9.49;63.29;94472.81;5087114;28;20035;-81
2024/02/26 01:47:12;;;;;;;15.27;11.57;;;;;;;9.47;63.25;94467.78;5086066;28;20450;-80
2024/02/26 01:49:38;;;;;;;21.90;12.70;;;;;;;9.50;63.20;94466.88;5085520;28;20024;-80
2024/02/26 01:52:06;;;;;;;17.02;12.80;;;;;;;9.56;62.89;94465.13;5086832;28;20031;-81
2024/02/26 01:54:32;;;;;;;21.85;12.68;;;;;;;9.54;62.88;94464.03;5085821;28;20023;-80
2024/02/26 01:56:57;;;;;;;19.58;12.70;;;;;;;9.54;62.53;94462.06;5087284;28;20383;-81
2024/02/26 01:59:23;;;;;;;19.13;12.95;;;;;;;9.54;62.47;94467.56;5085421;28;20490;-81
2024/02/26 02:01:54;;;;;;;21.83;13.63;;;;;;;9.53;62.58;94470.75;5085417;28;20567;-80
2024/02/26 02:04:19;;;;;;;20.25;13.35;;;;;;;9.53;62.71;94470.75;5084438;28;20631;-81
2024/02/26 02:06:46;;;;;;;20.17;13.32;;;;;;;9.45;63.13;94461.19;5085765;28;20036;-81
2024/02/26 02:09:11;;;;;;;20.10;12.80;;;;;;;9.53;62.82;94459.75;5087930;28;20047;-81
2024/02/26 02:11:37;;;;;;;21.23;13.63;;;;;;;9.44;63.15;94462.41;5086115;28;20486;-81
2024/02/26 02:14:02;;;;;;;19.55;12.75;;;;;;;9.43;63.16;94460.88;5085381;28;20024;-82
2024/02/26 02:16:28;;;;;;;20.38;12.68;;;;;;;9.49;63.05;94459.88;5085003;28;20466;-82
2024/02/26 02:18:53;;;;;;;22.58;13.35;;;;;;;9.44;63.25;94456.91;5086754;28;20020;-82
2024/02/26 02:21:19;;;;;;;20.58;13.10;;;;;;;9.50;63.05;94455.16;5085160;28;20497;-82
2024/02/26 02:23:46;;;;;;;21.13;12.77;;;;;;;9.50;63.00;94457.88;5086558;28;20032;-82
2024/02/26 02:26:12;;;;;;;18.63;12.73;;;;;;;9.52;62.98;94459.00;5085794;28;20040;-81
2024/02/26 02:28:39;;;;;;;18.85;13.10;;;;;;;9.49;63.28;94459.09;5067520;28;20398;-81
2024/02/26 02:31:05;;;;;;;20.13;14.50;;;;;;;9.52;63.24;94460.97;5086389;28;20024;-82
2024/02/26 02:33:30;;;;;;;19.98;13.93;;;;;;;9.50;63.24;94458.66;5085348;28;20068;-81
2024/02/26 02:35:56;;;;;;;21.88;13.77;;;;;;;9.50;63.38;94458.66;5085235;28;20016;-81
2024/02/26 02:38:21;;;;;;;20.17;14.15;;;;;;;9.56;63.14;94447.91;5084928;28;20103;-81
2024/02/26 02:40:46;;;;;;;20.30;13.50;;;;;;;9.57;63.29;94452.16;5085196;28;20226;-81
2024/02/26 02:43:12;;;;;;;19.02;13.52;;;;;;;9.61;63.23;94457.53;5085261;28;20517;-81
2024/02/26 02:45:37;;;;;;;18.67;12.95;;;;;;;9.61;63.37;94457.53;5086328;28;20020;-81
2024/02/26 02:48:03;;;;;;;30.38;14.95;;;;;;;9.60;63.43;94465.00;5085650;28;20379;-81
2024/02/26 02:50:29;;;;;;;21.48;15.13;;;;;;;9.63;63.61;94461.38;5085189;28;20102;-81
2024/02/26 02:52:54;;;;;;;24.35;16.02;;;;;;;9.62;63.56;94465.34;5086247;28;20024;-81
2024/02/26 02:55:20;;;;;;;21.15;15.02;;;;;;;9.56;63.74;94450.63;5084632;28;20131;-82
2024/02/26 02:57:45;;;;;;;24.08;15.55;;;;;;;9.55;63.83;94462.81;5085188;28;20074;-81
2024/02/26 03:00:11;;;;;;;22.85;15.40;;;;;;;9.56;63.88;94467.88;5084219;28;20505;-82
2024/02/26 03:02:36;;;;;;;24.98;15.07;;;;;;;9.58;63.97;94476.44;5086091;28;20039;-81
2024/02/26 03:05:05;;;;;;;18.98;13.10;;;;;;;9.60;63.88;94467.00;5084172;28;20122;-81
2024/02/26 03:07:31;;;;;;;20.00;13.88;;;;;;;9.58;63.86;94462.72;5083766;28;20051;-82
2024/02/26 03:09:57;;;;;;;21.48;14.45;;;;;;;9.55;64.02;94476.53;5084621;28;20478;-81
2024/02/26 03:12:22;;;;;;;21.42;13.15;;;;;;;9.54;64.02;94473.03;5084552;28;20502;-82
2024/02/26 03:14:48;;;;;;;19.38;14.02;;;;;;;9.50;63.82;94466.88;5084695;28;20024;-81
2024/02/26 03:17:13;;;;;;;20.83;14.35;;;;;;;9.48;63.88;94465.81;5084631;28;20111;-81
2024/02/26 03:19:38;;;;;;;21.75;14.63;;;;;;;9.55;63.88;94474.56;5086188;28;20051;-81
2024/02/26 03:22:04;;;;;;;19.25;14.07;;;;;;;9.55;63.86;94469.06;5084447;28;20102;-81
2024/02/26 03:24:30;;;;;;;26.42;13.88;;;;;;;9.49;63.97;94468.09;5085837;28;20031;-82
2024/02/26 03:26:56;;;;;;;23.33;14.85;;;;;;;9.54;63.93;94466.78;5086326;28;20111;-81
2024/02/26 03:29:21;;;;;;;21.73;14.95;;;;;;;9.56;63.98;94458.88;5088694;28;20525;-81
2024/02/26 03:31:46;;;;;;;21.92;14.50;;;;;;;9.59;63.80;94449.75;5090012;28;20087;-82
2024/02/26 03:34:13;;;;;;;20.50;14.32;;;;;;;9.61;63.71;94450.09;5087868;28;20123;-81
2024/02/26 03:36:39;;;;;;;23.73;14.18;;;;;;;9.57;63.90;94449.41;5088547;28;20020;-81
2024/02/26 03:39:07;;;;;;;21.33;15.82;;;;;;;9.56;64.06;94451.41;5088085;28;20450;-80
2024/02/26 03:41:33;;;;;;;22.98;14.95;;;;;;;9.61;63.81;94444.59;5089662;28;20020;-80
2024/02/26 03:43:58;;;;;;;24.17;15.18;;;;;;;9.63;63.89;94444.91;5087477;28;20510;-82
2024/02/26 03:46:24;;;;;;;24.65;15.52;;;;;;;9.65;63.93;94452.72;5088460;28;20054;-81
2024/02/26 03:48:49;;;;;;;22.73;16.27;;;;;;;9.67;63.87;94450.28;5089418;28;20024;-82
2024/02/26 03:51:15;;;;;;;26.63;15.98;;;;;;;9.69;63.84;94445.91;5087854;28;20024;-82
2024/02/26 03:53:40;;;;;;;23.20;15.05;;;;;;;9.71;63.72;94442.72;5089387;28;20072;-82
2024/02/26 03:56:06;;;;;;;22.58;15.38;;;;;;;9.73;63.63;94438.31;5087513;28;20073;-82
2024/02/26 03:58:32;;;;;;;22.20;15.30;;;;;;;9.72;63.62;94439.53;5088170;28;20020;-80
2024/02/26 04:00:58;;;;;;;21.00;14.82;;;;;;;9.72;63.56;94436.00;5087724;28;20414;-81
2024/02/26 04:03:23;;;;;;;23.33;14.93;;;;;;;9.67;63.75;94439.31;5088586;28;20048;-83
2024/02/26 04:05:49;;;;;;;25.02;16.08;;;;;;;9.54;64.26;94434.63;5088761;28;20020;-81
2024/02/26 04:08:14;;;;;;;24.17;16.45;;;;;;;9.64;63.90;94429.22;5087919;28;20032;-81
2024/02/26 04:10:40;;;;;;;21.58;13.88;;;;;;;9.58;64.04;94429.03;5089313;28;20539;-82
2024/02/26 04:13:07;;;;;;;26.75;15.25;;;;;;;9.51;64.13;94429.25;5087195;28;20120;-81
2024/02/26 04:15:32;;;;;;;23.25;15.55;;;;;;;9.51;63.99;94421.78;5087878;28;20157;-80
2024/02/26 04:17:58;;;;;;;21.90;14.27;;;;;;;9.56;63.91;94439.66;5087346;28;20045;-80
2024/02/26 04:20:23;;;;;;;21.90;15.18;;;;;;;9.51;64.11;94435.50;5088856;28;20035;-80
2024/02/26 04:22:49;;;;;;;20.88;14.85;;;;;;;9.54;64.05;94425.63;5088688;28;20103;-81
2024/02/26 04:25:14;;;;;;;20.88;15.32;;;;;;;9.45;64.33;94420.03;5086183;28;20517;-81
2024/02/26 04:27:40;;;;;;;23.85;14.50;;;;;;;9.48;64.24;94425.41;5088961;28;20111;-81
2024/02/26 04:30:06;;;;;;;19.50;15.02;;;;;;;9.53;64.05;94424.09;5086923;28;20108;-82
2024/02/26 04:32:32;;;;;;;25.48;15.35;;;;;;;9.60;63.89;94432.09;5087671;28;20024;-82
2024/02/26 04:34:57;;;;;;;21.98;14.43;;;;;;;9.50;64.11;94427.72;5085705;28;20023;-81
2024/02/26 04:37:22;;;;;;;23.33;15.27;;;;;;;9.44;64.13;94419.25;5087220;28;20533;-81
2024/02/26 04:39:48;;;;;;;22.17;14.57;;;;;;;9.43;64.09;94415.00;5084966;28;20106;-81
2024/02/26 04:42:13;;;;;;;23.55;15.20;;;;;;;9.51;64.04;94418.25;5087797;28;20028;-81
2024/02/26 04:44:39;;;;;;;24.05;15.50;;;;;;;9.54;64.10;94431.88;5088078;28;20060;-86
2024/02/26 04:47:04;;;;;;;25.45;17.60;;;;;;;9.50;64.34;94430.44;5086959;28;20039;-83
2024/02/26 04:49:30;;;;;;;25.27;17.52;;;;;;;9.56;63.91;94434.94;5090004;28;20058;-85
2024/02/26 04:51:55;;;;;;;27.17;18.70;;;;;;;9.63;63.94;94433.16;5086240;28;20024;-84
2024/02/26 04:54:20;;;;;;;34.13;19.95;;;;;;;9.58;64.02;94438.03;5086974;28;20414;-83
2024/02/26 04:56:46;;;;;;;31.10;20.25;;;;;;;9.61;64.02;94433.63;5086847;28;20124;-84
2024/02/26 04:59:11;;;;;;;30.30;20.15;;;;;;;9.62;64.04;94446.13;5086399;28;20032;-84
2024/02/26 05:01:37;;;;;;;37.80;24.83;;;;;;;9.58;64.23;94454.50;5087364;28;20036;-86
2024/02/26 05:04:05;;;;;;;42.70;28.67;;;;;;;9.57;64.32;94454.91;5086844;28;20417;-85
2024/02/26 05:06:31;;;;;;;39.05;27.52;;;;;;;9.63;64.18;94453.13;5086738;28;20032;-85
2024/02/26 05:08:56;;;;;;;43.92;29.50;;;;;;;9.51;64.39;94449.22;5085142;28;20363;-85
2024/02/26 05:11:22;;;;;;;40.08;28.90;;;;;;;9.53;64.47;94455.03;5088479;28;20020;-84
2024/02/26 05:13:50;;;;;;;40.63;29.20;;;;;;;9.49;64.51;94464.59;5086280;28;20627;-86
2024/02/26 05:16:15;;;;;;;39.65;28.17;;;;;;;9.45;64.50;94463.94;5087693;28;20031;-84
2024/02/26 05:18:41;;;;;;;34.97;24.98;;;;;;;9.49;64.47;94472.81;5087053;28;20024;-83
2024/02/26 05:21:06;;;;;;;30.80;22.70;;;;;;;9.44;64.30;94465.91;5087350;28;20016;-82
2024/02/26 05:23:31;;;;;;;32.28;21.60;;;;;;;9.46;64.38;94465.47;5087841;28;20017;-83
2024/02/26 05:25:57;;;;;;;34.67;20.92;;;;;;;9.51;63.98;94478.63;5087156;28;20595;-82
2024/02/26 05:28:22;;;;;;;28.40;19.95;;;;;;;9.54;63.75;94481.28;5104054;28;20052;-81
2024/02/26 05:30:48;;;;;;;26.55;19.13;;;;;;;9.47;63.73;94481.50;5101876;28;20028;-82
2024/02/26 05:33:13;;;;;;;26.52;19.50;;;;;;;9.54;63.84;94492.25;5087635;28;20028;-82
2024/02/26 05:35:40;;;;;;;27.60;20.92;;;;;;;9.56;63.91;94484.34;5086199;28;20024;-83
2024/02/26 05:38:05;;;;;;;26.98;20.20;;;;;;;9.53;64.10;94495.44;5085692;28;20024;-83
2024/02/26 05:40:31;;;;;;;26.63;19.00;;;;;;;9.52;64.17;94493.91;5087063;28;20024;-83
2024/02/26 05:42:56;;;;;;;30.63;20.52;;;;;;;9.39;64.35;94488.41;5086464;28;20020;-83
2024/02/26 05:45:21;;;;;;;28.42;20.67;;;;;;;9.62;64.13;94492.78;5087539;28;20480;-85
2024/02/26 05:47:47;;;;;;;25.92;18.02;;;;;;;9.62;64.09;94497.50;5085479;28;20089;-85
2024/02/26 05:50:13;;;;;;;31.42;19.60;;;;;;;9.50;64.26;94486.09;5085627;28;20107;-86
2024/02/26 05:52:38;;;;;;;27.33;18.63;;;;;;;9.48;64.56;94490.50;5083738;28;20052;-86
2024/02/26 05:55:04;;;;;;;27.65;18.13;;;;;;;9.49;64.66;94495.53;5086524;28;20024;-85
2024/02/26 05:57:31;;;;;;;24.67;16.90;;;;;;;9.57;64.61;94496.06;5086988;28;20568;-87
2024/02/26 05:59:56;;;;;;;28.52;16.73;;;;;;;9.53;64.66;94495.44;5087225;28;20020;-87
2024/02/26 06:02:21;;;;;;;25.85;16.50;;;;;;;9.55;64.70;94493.00;5086813;28;20557;-86
2024/02/26 06:04:47;;;;;;;30.83;18.05;;;;;;;9.53;64.83;94507.19;5086103;28;20016;-85
2024/02/26 06:07:12;;;;;;;25.95;16.27;;;;;;;9.56;64.79;94500.03;5086683;28;20028;-83
2024/02/26 06:09:38;;;;;;;27.48;15.82;;;;;;;9.56;64.90;94502.78;5084038;28;20031;-82
2024/02/26 06:12:03;;;;;;;24.08;16.90;;;;;;;9.60;64.74;94497.94;5087006;28;20118;-82
2024/02/26 06:14:29;;;;;;;23.05;16.48;;;;;;;9.65;64.67;94502.88;5084091;28;20062;-82
2024/02/26 06:16:54;;;;;;;25.25;15.55;;;;;;;9.68;64.45;94509.47;5086814;28;20027;-83
2024/02/26 06:19:19;;;;;;;24.67;16.33;;;;;;;9.63;64.77;94507.25;5085128;28;20119;-84
2024/02/26 06:21:45;;;;;;;25.48;15.77;;;;;;;9.56;64.90;94511.78;5084802;28;20510;-83
2024/02/26 06:24:10;;;;;;;22.23;16.35;;;;;;;9.60;64.84;94508.16;5087755;28;20024;-85
2024/02/26 06:26:35;;;;;;;25.00;16.10;;;;;;;9.61;64.72;94513.19;5086441;28;20030;-82
2024/02/26 06:29:01;;;;;;;24.48;16.65;;;;;;;9.62;64.67;94505.72;5089216;28;20499;-84
2024/02/26 06:31:27;;;;;;;25.30;15.88;;;;;;;9.66;64.64;94509.91;5086491;28;20042;-82
2024/02/26 06:33:53;;;;;;;23.38;16.52;;;;;;;9.69;64.79;94514.53;5087112;28;20028;-82
2024/02/26 06:36:19;;;;;;;24.05;17.13;;;;;;;9.63;65.16;94518.25;5068105;28;20482;-83
2024/02/26 06:38:44;;;;;;;24.92;15.55;;;;;;;9.56;65.25;94511.78;5086692;28;20203;-82
2024/02/26 06:41:11;;;;;;;25.65;16.95;;;;;;;9.65;65.01;94515.84;5068135;28;20039;-83
2024/02/26 06:43:36;;;;;;;25.23;17.40;;;;;;;9.62;65.18;94514.72;5085274;28;20103;-83
2024/02/26 06:46:02;;;;;;;23.58;16.17;;;;;;;9.71;64.94;94514.84;5086519;28;20123;-83
2024/02/26 06:48:27;;;;;;;25.67;17.88;;;;;;;9.69;64.82;94516.47;5083746;28;20028;-83
2024/02/26 06:50:53;;;;;;;26.25;17.50;;;;;;;9.67;65.11;94516.16;5086475;28;20371;-83
2024/02/26 06:53:18;;;;;;;26.75;17.08;;;;;;;9.72;65.01;94516.38;5084838;28;20035;-83
2024/02/26 06:55:44;;;;;;;29.60;20.13;;;;;;;9.69;65.24;94524.72;5086119;28;20028;-83
2024/02/26 06:58:09;;;;;;;28.70;20.75;;;;;;;9.71;65.11;94527.81;5086048;28;20068;-83
2024/02/26 07:00:35;;;;;;;30.92;22.95;;;;;;;9.75;64.84;94517.47;5083898;28;20125;-82
2024/02/26 07:03:00;;;;;;;34.40;22.55;;;;;;;9.79;64.90;94524.38;5088874;28;20040;-82
2024/02/26 07:05:27;;;;;;;40.75;27.08;;;;;;;9.83;64.46;94519.53;5087635;28;20026;-84
2024/02/26 07:07:52;;;;;;;46.80;28.80;;;;;;;9.79;64.35;94518.88;5089852;28;20031;-83
2024/02/26 07:10:18;;;;;;;51.10;32.38;;;;;;;9.97;63.96;94523.03;5087655;28;20032;-84
2024/02/26 07:12:43;;;;;;;44.53;27.52;;;;;;;9.91;63.91;94530.28;5089128;28;20406;-83
2024/02/26 07:15:09;;;;;;;36.38;23.75;;;;;;;9.96;63.39;94519.50;5089039;28;20072;-83
2024/02/26 07:17:35;;;;;;;30.10;20.67;;;;;;;9.95;63.24;94534.47;5088480;28;20020;-83
2024/02/26 07:20:00;;;;;;;28.27;17.95;;;;;;;10.02;63.17;94528.72;5089628;28;20034;-84
2024/02/26 07:22:26;;;;;;;28.08;16.40;;;;;;;10.01;62.76;94537.41;5088963;28;20108;-83
2024/02/26 07:24:51;;;;;;;24.13;16.55;;;;;;;9.86;63.33;94534.34;5090599;28;20031;-84
2024/02/26 07:27:18;;;;;;;26.75;16.70;;;;;;;9.98;63.14;94535.56;5086748;28;20306;-83
2024/02/26 07:29:43;;;;;;;27.55;16.85;;;;;;;10.02;63.04;94536.19;5088708;28;20035;-82
2024/02/26 07:32:10;;;;;;;28.88;17.88;;;;;;;10.08;62.66;94534.41;5088245;28;20028;-82
2024/02/26 07:34:37;;;;;;;34.65;18.67;;;;;;;10.04;63.15;94531.03;5089577;28;20024;-82
2024/02/26 07:37:03;;;;;;;25.63;17.90;;;;;;;10.09;62.98;94527.72;5071109;28;20057;-83
2024/02/26 07:39:28;;;;;;;33.17;19.33;;;;;;;10.11;62.85;94539.03;5088670;28;20048;-83
2024/02/26 07:41:53;;;;;;;27.40;18.08;;;;;;;10.09;63.09;94533.22;5088600;28;20460;-82
2024/02/26 07:44:19;;;;;;;35.40;18.80;;;;;;;10.21;62.83;94540.66;5087779;28;20030;-83
2024/02/26 07:46:44;;;;;;;38.92;21.42;;;;;;;10.26;62.58;94542.84;5089909;28;20653;-83
2024/02/26 07:49:10;;;;;;;26.08;18.15;;;;;;;10.32;62.47;94538.34;5086609;28;20041;-83
2024/02/26 07:51:35;;;;;;;37.15;18.80;;;;;;;10.29;62.41;94531.00;5088338;28;20095;-83
2024/02/26 07:54:01;;;;;;;24.48;16.63;;;;;;;10.32;62.28;94527.38;5088573;28;20028;-83
2024/02/26 07:56:26;;;;;;;28.23;17.10;;;;;;;10.48;61.73;94533.88;5087350;28;20452;-83
2024/02/26 07:58:52;;;;;;;24.13;16.63;;;;;;;10.35;62.00;94529.22;5089290;28;20032;-84
2024/02/26 08:01:17;;;;;;;30.00;18.02;;;;;;;10.43;61.91;94532.47;5069407;28;20110;-84
2024/02/26 08:03:42;;;;;;;28.13;19.00;;;;;;;10.46;61.59;94533.56;5089291;28;20398;-84
2024/02/26 08:06:08;;;;;;;34.75;20.77;;;;;;;10.50;61.18;94531.47;5087403;28;20107;-83
2024/02/26 08:08:34;;;;;;;32.47;21.05;;;;;;;10.54;61.46;94532.88;5089247;28;20419;-84
2024/02/26 08:10:59;;;;;;;33.40;21.73;;;;;;;10.53;61.57;94536.06;5087948;28;20051;-83
2024/02/26 08:13:26;;;;;;;36.17;20.52;;;;;;;10.59;61.29;94526.03;5088465;28;20043;-83
2024/02/26 08:15:51;;;;;;;27.33;19.95;;;;;;;10.73;60.66;94531.03;5087297;28;20024;-84
2024/02/26 08:18:17;;;;;;;28.67;19.95;;;;;;;10.75;60.78;94519.59;5086875;28;20085;-84
2024/02/26 08:20:42;;;;;;;31.60;18.65;;;;;;;10.76;60.55;94513.63;5089273;28;20024;-83
2024/02/26 08:23:07;;;;;;;34.15;20.80;;;;;;;10.88;60.67;94526.53;5087039;28;20155;-84
2024/02/26 08:25:33;;;;;;;33.28;21.92;;;;;;;11.01;60.01;94534.75;5087659;28;20024;-82
2024/02/26 08:27:58;;;;;;;33.95;21.20;;;;;;;10.99;60.00;94525.41;5087806;28;20059;-85
2024/02/26 08:30:24;;;;;;;30.23;20.17;;;;;;;11.04;60.09;94524.81;5088746;28;20474;-83
2024/02/26 08:32:49;;;;;;;34.42;19.80;;;;;;;11.05;59.96;94529.09;5087762;28;20024;-85
2024/02/26 08:35:15;;;;;;;30.98;20.98;;;;;;;11.23;59.35;94529.19;5087940;28;20024;-84
2024/02/26 08:37:44;;;;;;;30.73;18.98;;;;;;;11.21;59.46;94522.63;5070351;28;20153;-84
2024/02/26 08:40:10;;;;;;;30.98;20.52;;;;;;;11.38;59.20;94526.69;5085619;28;20062;-84
2024/02/26 08:42:35;;;;;;;28.75;20.90;;;;;;;11.54;58.94;94525.69;5089087;28;20028;-84
2024/02/26 08:45:02;;;;;;;31.15;19.92;;;;;;;11.58;58.64;94518.78;5087414;28;20050;-85
2024/02/26 08:47:28;;;;;;;32.05;20.55;;;;;;;11.69;58.02;94521.13;5089770;28;20024;-84
2024/02/26 08:49:53;;;;;;;36.22;21.17;;;;;;;11.70;58.03;94525.44;5104862;28;20024;-83
2024/02/26 08:52:18;;;;;;;29.67;20.80;;;;;;;11.72;57.99;94517.47;5103766;28;20024;-84
2024/02/26 08:54:44;;;;;;;28.98;20.40;;;;;;;11.74;57.92;94515.03;5087691;28;20024;-84
2024/02/26 08:57:09;;;;;;;29.27;22.10;;;;;;;11.77;57.90;94522.41;5086598;28;20099;-83
2024/02/26 08:59:35;;;;;;;32.85;21.10;;;;;;;11.89;58.17;94524.28;5088098;28;20031;-84
2024/02/26 09:02:00;;;;;;;31.17;21.08;;;;;;;11.98;58.00;94522.78;5086367;28;20035;-84
2024/02/26 09:04:27;;;;;;;28.83;19.55;;;;;;;12.04;57.61;94512.69;5088161;28;20020;-84
2024/02/26 09:06:52;;;;;;;29.10;19.73;;;;;;;12.17;57.38;94518.84;5086906;28;20101;-83
2024/02/26 09:09:17;;;;;;;31.42;20.33;;;;;;;12.16;57.22;94512.56;5087851;28;20464;-83
2024/02/26 09:11:43;;;;;;;28.48;19.75;;;;;;;12.26;56.90;94513.31;5087276;28;20062;-84
2024/02/26 09:14:08;;;;;;;31.80;19.45;;;;;;;12.22;56.95;94501.72;5087197;28;20044;-84
2024/02/26 09:16:34;;;;;;;28.58;19.05;;;;;;;12.21;57.33;94505.66;5087838;28;20039;-83
2024/02/26 09:18:59;;;;;;;31.48;19.77;;;;;;;12.09;57.67;94484.53;5086777;28;20020;-83
2024/02/26 09:21:25;;;;;;;26.40;20.13;;;;;;;12.28;57.60;94504.63;5087905;28;20439;-84
2024/02/26 09:23:50;;;;;;;28.63;19.13;;;;;;;12.44;57.11;94501.53;5084772;28;20016;-84
2024/02/26 09:26:16;;;;;;;29.95;19.55;;;;;;;12.48;56.99;94497.41;5085602;28;20028;-85
2024/02/26 09:28:42;;;;;;;26.25;18.80;;;;;;;12.59;56.66;94504.47;5086599;28;20028;-84
2024/02/26 09:31:07;;;;;;;28.00;19.17;;;;;;;12.76;56.38;94506.44;5087255;28;20024;-84
2024/02/26 09:33:33;;;;;;;27.90;18.83;;;;;;;12.91;56.08;94500.31;5087047;28;20042;-84
2024/02/26 09:36:00;;;;;;;29.70;18.40;;;;;;;13.02;55.98;94498.59;5085094;28;20020;-83
2024/02/26 09:38:26;;;;;;;27.25;19.45;;;;;;;13.36;55.07;94498.66;5086226;28;20093;-83
2024/02/26 09:40:51;;;;;;;31.98;20.33;;;;;;;13.61;54.54;94490.00;5067830;28;20496;-83
2024/02/26 09:43:17;;;;;;;34.33;18.48;;;;;;;13.80;54.16;94493.44;5087531;28;20093;-85
2024/02/26 09:45:43;;;;;;;29.85;15.98;;;;;;;13.96;53.75;94486.75;5085137;28;20062;-84
2024/02/26 09:48:10;;;;;;;21.42;14.05;;;;;;;14.39;52.82;94481.84;5085504;28;20040;-84
2024/02/26 09:50:37;;;;;;;18.17;12.20;;;;;;;14.57;52.19;94476.97;5085165;28;20103;-83
2024/02/26 09:53:05;;;;;;;19.65;11.77;;;;;;;14.84;50.68;94486.25;5085138;28;20095;-82
2024/02/26 09:55:30;;;;;;;13.52;8.77;;;;;;;14.76;49.77;94487.88;5086835;28;20442;-83
2024/02/26 09:57:56;;;;;;;10.38;7.20;;;;;;;14.53;49.30;94486.69;5085737;28;20028;-83
2024/02/26 10:00:22;;;;;;;9.07;6.45;;;;;;;14.50;49.12;94469.03;5085472;28;20039;-82
2024/02/26 10:02:48;;;;;;;11.32;6.28;;;;;;;14.54;49.25;94471.63;5084018;28;20098;-85
2024/02/26 10:05:17;;;;;;;9.80;6.10;;;;;;;14.72;49.44;94467.91;5086798;28;20083;-84
2024/02/26 10:07:42;;;;;;;9.32;5.95;;;;;;;14.72;47.86;94465.16;5084736;28;20547;-85
2024/02/26 10:10:08;;;;;;;7.32;5.40;;;;;;;14.76;48.32;94465.75;5085170;28;20046;-82
2024/02/26 10:12:33;;;;;;;9.85;5.55;;;;;;;14.98;48.09;94465.38;5085235;28;20024;-85
2024/02/26 10:14:59;;;;;;;10.98;5.60;;;;;;;15.18;46.68;94459.91;5085538;28;20137;-84
2024/02/26 10:17:24;;;;;;;7.07;5.40;;;;;;;15.43;46.57;94461.34;5086661;28;20020;-85
2024/02/26 10:19:51;;;;;;;6.72;5.32;;;;;;;15.51;46.11;94454.16;5083552;28;20024;-84
2024/02/26 10:22:17;;;;;;;7.30;5.10;;;;;;;15.60;46.43;94453.28;5084996;28;20101;-85
2024/02/26 10:24:42;;;;;;;14.32;5.43;;;;;;;15.73;46.17;94459.28;5083887;28;20059;-84
2024/02/26 10:27:08;;;;;;;11.88;6.47;;;;;;;15.84;45.64;94451.16;5085251;28;20031;-85
2024/02/26 10:29:34;;;;;;;9.23;5.05;;;;;;;15.98;45.50;94448.78;5084563;28;20077;-82
2024/02/26 10:32:00;;;;;;;9.57;6.03;;;;;;;15.97;43.78;94447.28;5083868;28;20035;-84
2024/02/26 10:34:26;;;;;;;6.20;4.90;;;;;;;15.97;43.78;94442.50;5085040;28;20028;-86
2024/02/26 10:36:51;;;;;;;5.28;4.43;;;;;;;16.09;43.88;94438.63;5083840;28;20031;-88
2024/02/26 10:39:17;;;;;;;6.53;4.45;;;;;;;16.15;43.71;94444.22;5086244;28;20467;-86
2024/02/26 10:41:44;;;;;;;8.13;4.90;;;;;;;15.96;43.72;94435.44;5084880;28;20118;-87
2024/02/26 10:44:10;;;;;;;6.00;4.53;;;;;;;15.93;44.16;94431.59;5086931;28;20028;-85
2024/02/26 10:46:37;;;;;;;8.38;4.88;;;;;;;16.03;43.91;94437.03;5085204;28;20032;-86
2024/02/26 10:49:02;;;;;;;6.53;4.65;;;;;;;15.96;43.28;94427.09;5086980;28;20051;-93
2024/02/26 10:51:29;;;;;;;5.75;4.63;;;;;;;15.91;43.00;94433.34;5088117;28;20059;-95
2024/02/26 10:54:01;;;;;;;6.18;4.63;;;;;;;15.84;43.10;94428.97;5083729;28;20188;-85
2024/02/26 10:56:30;;;;;;;5.00;4.15;;;;;;;15.49;43.34;94426.19;5086283;28;20085;-86
2024/02/26 10:58:55;;;;;;;6.38;4.45;;;;;;;15.57;43.51;94426.53;5083366;28;20027;-87
2024/02/26 11:01:22;;;;;;;7.05;4.70;;;;;;;15.41;43.70;94413.97;5084560;28;20043;-85
2024/02/26 11:03:55;;;;;;;6.43;4.45;;;;;;;15.36;44.00;94418.16;5067644;28;20055;-88
2024/02/26 11:06:21;;;;;;;8.27;5.20;;;;;;;15.38;46.27;94420.47;5067467;28;20024;-87
2024/02/26 11:08:50;;;;;;;8.10;6.22;;;;;;;15.43;46.21;94414.25;5067969;28;20446;-85
2024/02/26 11:11:18;;;;;;;6.25;4.70;;;;;;;15.49;45.71;94409.56;5084079;28;20055;-84
2024/02/26 11:13:49;;;;;;;6.45;4.35;;;;;;;15.28;44.38;94422.59;5086780;28;20508;-87
2024/02/26 11:16:17;;;;;;;6.10;4.82;;;;;;;15.16;44.81;94407.03;5084851;28;20506;-87